Ana Sayfa
METAR-TAF:

METAR-TAF

Havaalanları :

Pyongyang Sunan Uluslararası Havalimanı

Pyongyang, Kuzey Kore

Enlem: 39-02N, Boylam: 125-47E, yükseklik: 36 m

METAR: eksik

Saat: 11:25 (02:25 UTC)

Tahmin

Rapor saat 21:00 UTC de 5 saat ve 25 dakika önce yapıldı.
Ayın 22'si saat 00 UTC'den ayın 22'si saat 24 UTC'ye kadar geçerli Tahmin
Rüzgar güneydan 6 kt
Görüş mesafesi: 4000 m
Pus

TAF: ZKPY 212100Z 2200/2224 18003MPS 4000 BR NSC TX05/2206Z TNM02/2222Z

4.000'den fazla havaalanı için hava durumu gözlemleri ve tahminleri (METAR ve TAF raporları).

Kullanılabilir istasyonlar harita üzerinde sarı ve kırmızı noktalarla gösterilir.

İstasyonun adını görmek için fareyi noktanın üzerinde gezdirin.

Sonrasında hava gözlem ve tahminlerini görmek için tıklayın.

Haritayı değiştirmek için: yaklaştırmak için siyah artı işaretli yeşil düğmeye ve uzaklaştırmak için de eksi işaretli düğmeye hızla tıklayın; bitişik haritalar için yeşil okları kullanın.


METAR-TAF: